Time;durP1;ratioP1;P1;durP2;ratioP2;P2;SDS_P1;SDS_P2;PMS_P1;PMS_P2;Temp;Humidity;BMP_temperature;BMP_pressure;BME280_temperature;BME280_humidity;BME280_pressure;Samples;Min_cycle;Max_cycle;Signal;HPM_P1;HPM_P2
2023/04/30 00:00:16;;;;;;;0.93;0.77;;;12.40;99.90;;;;;;5052583;28;20246;-63
2023/04/30 00:02:43;;;;;;;1.40;1.15;;;12.50;99.90;;;;;;5163408;22;20236;-73
2023/04/30 00:05:13;;;;;;;1.40;1.30;;;12.50;99.90;;;;;;5051682;28;20208;-70
2023/04/30 00:07:41;;;;;;;0.75;0.70;;;12.50;99.90;;;;;;5052268;28;20286;-71
2023/04/30 00:10:10;;;;;;;1.30;0.70;;;12.60;99.90;;;;;;5052570;28;20228;-72
2023/04/30 00:12:38;;;;;;;1.05;0.95;;;12.50;99.90;;;;;;5046094;28;20306;-71
2023/04/30 00:15:07;;;;;;;0.70;0.60;;;12.50;99.90;;;;;;5052559;28;20235;-71
2023/04/30 00:17:34;;;;;;;1.23;1.13;;;12.60;99.90;;;;;;5052172;28;20222;-73
2023/04/30 00:20:03;;;;;;;1.52;1.42;;;12.60;99.90;;;;;;5048200;28;20219;-71
2023/04/30 00:22:33;;;;;;;0.60;0.60;;;12.70;99.90;;;;;;5026777;28;20208;-71
2023/04/30 00:25:01;;;;;;;1.00;1.00;;;12.40;99.90;;;;;;5032419;28;20623;-71
2023/04/30 00:27:30;;;;;;;0.85;0.85;;;12.40;99.90;;;;;;5031999;28;20698;-72
2023/04/30 00:29:58;;;;;;;1.98;1.70;;;12.50;99.90;;;;;;5032153;28;20287;-72
2023/04/30 00:32:26;;;;;;;0.60;0.55;;;12.60;99.90;;;;;;5031866;28;20228;-73
2023/04/30 00:34:54;;;;;;;0.70;0.60;;;12.60;99.90;;;;;;5032206;28;20207;-72
2023/04/30 00:37:22;;;;;;;1.17;1.00;;;12.50;99.90;;;;;;5039839;28;20232;-73
2023/04/30 00:39:51;;;;;;;1.38;0.93;;;12.50;99.90;;;;;;5030916;28;20208;-71
2023/04/30 00:42:19;;;;;;;1.00;0.90;;;12.60;99.90;;;;;;5031423;28;20296;-72
2023/04/30 00:44:47;;;;;;;1.17;1.08;;;12.60;99.90;;;;;;5032022;28;20308;-71
2023/04/30 00:47:15;;;;;;;1.13;1.02;;;12.60;99.90;;;;;;5031652;28;20215;-72
2023/04/30 00:49:43;;;;;;;1.38;0.77;;;12.70;99.90;;;;;;5031794;28;20262;-71
2023/04/30 00:52:11;;;;;;;0.60;0.50;;;12.70;99.90;;;;;;5032131;28;20224;-72
2023/04/30 00:54:40;;;;;;;1.35;1.25;;;12.60;99.90;;;;;;5035888;28;20255;-72
2023/04/30 00:57:13;;;;;;;1.35;0.60;;;12.60;99.90;;;;;;5038181;28;20201;-72
2023/04/30 00:59:41;;;;;;;0.80;0.80;;;12.60;99.90;;;;;;5051673;28;20203;-72
2023/04/30 01:02:10;;;;;;;0.90;0.85;;;12.60;99.90;;;;;;5051588;28;20299;-73
2023/04/30 01:04:38;;;;;;;1.60;1.02;;;12.70;99.90;;;;;;5051435;28;20238;-72
2023/04/30 01:07:07;;;;;;;0.93;0.90;;;12.70;99.90;;;;;;5051446;28;20282;-72
2023/04/30 01:09:35;;;;;;;0.68;0.65;;;12.60;99.90;;;;;;5051345;28;20278;-72
2023/04/30 01:12:15;;;;;;;1.48;1.38;;;12.60;99.90;;;;;;5047900;28;20260;-71
2023/04/30 01:14:54;;;;;;;0.98;0.98;;;12.60;99.90;;;;;;5036349;28;20255;-72
2023/04/30 01:17:31;;;;;;;0.70;0.60;;;12.60;99.90;;;;;;5051220;28;20303;-73
2023/04/30 01:20:00;;;;;;;1.17;0.95;;;12.70;99.90;;;;;;5044551;28;20208;-71
2023/04/30 01:22:37;;;;;;;0.60;0.50;;;12.60;99.90;;;;;;5031058;28;20236;-72
2023/04/30 01:25:25;;;;;;;1.25;1.25;;;12.60;99.90;;;;;;5046616;28;20204;-72
2023/04/30 01:28:05;;;;;;;1.23;1.05;;;12.60;99.90;;;;;;5037047;28;20200;-72
2023/04/30 01:30:34;;;;;;;0.90;0.70;;;12.50;99.90;;;;;;5044040;28;20209;-71
2023/04/30 01:33:03;;;;;;;0.68;0.65;;;12.50;99.90;;;;;;5051005;28;20306;-72
2023/04/30 01:35:49;;;;;;;0.63;0.60;;;12.50;99.90;;;;;;5051029;28;20208;-72
2023/04/30 01:38:27;;;;;;;0.88;0.85;;;12.40;99.90;;;;;;5050878;28;20637;-73
2023/04/30 01:41:08;;;;;;;1.40;0.93;;;12.30;99.90;;;;;;5050962;28;20207;-73
2023/04/30 01:43:46;;;;;;;0.68;0.60;;;12.20;99.90;;;;;;5050748;28;20234;-72
2023/04/30 01:46:21;;;;;;;0.90;0.82;;;12.10;99.90;;;;;;5042180;28;20227;-71
2023/04/30 01:49:00;;;;;;;0.82;0.82;;;12.00;99.90;;;;;;5036855;28;20204;-71
2023/04/30 01:51:32;;;;;;;1.67;1.58;;;11.90;99.90;;;;;;5033640;28;20257;-72
2023/04/30 01:54:06;;;;;;;1.05;0.80;;;11.80;99.90;;;;;;5036929;28;20231;-72
2023/04/30 01:56:43;;;;;;;1.00;0.90;;;11.70;99.90;;;;;;5050698;28;20339;-71
2023/04/30 01:59:15;;;;;;;2.47;1.65;;;11.60;99.90;;;;;;5050703;28;20196;-71
2023/04/30 02:01:43;;;;;;;1.10;0.93;;;11.60;99.90;;;;;;5042917;28;20208;-71
2023/04/30 02:04:11;;;;;;;1.05;0.88;;;11.60;99.90;;;;;;5043231;28;20323;-71
2023/04/30 02:06:40;;;;;;;1.40;1.27;;;11.30;99.90;;;;;;5050437;28;20295;-71
2023/04/30 02:09:09;;;;;;;1.63;1.52;;;11.30;99.90;;;;;;5050101;28;20690;-72
2023/04/30 02:11:37;;;;;;;1.08;0.95;;;11.20;99.90;;;;;;5050545;28;20229;-73
2023/04/30 02:14:05;;;;;;;1.20;0.90;;;11.20;99.90;;;;;;5050532;28;20216;-71
2023/04/30 02:16:34;;;;;;;1.10;1.00;;;11.20;99.90;;;;;;5050477;28;20732;-73
2023/04/30 02:19:02;;;;;;;0.80;0.73;;;11.20;99.90;;;;;;5050162;28;20199;-72
2023/04/30 02:21:30;;;;;;;2.58;1.15;;;11.20;99.90;;;;;;5027882;28;20213;-71
2023/04/30 02:23:58;;;;;;;1.83;1.73;;;11.20;99.90;;;;;;5030232;28;20315;-72
2023/04/30 02:26:26;;;;;;;2.20;1.70;;;11.30;99.90;;;;;;5050413;28;20203;-72
2023/04/30 02:28:54;;;;;;;1.00;0.85;;;11.30;99.90;;;;;;5050309;28;20298;-73
2023/04/30 02:31:22;;;;;;;1.98;1.88;;;11.30;99.90;;;;;;5049080;28;20746;-72
2023/04/30 02:33:51;;;;;;;1.00;0.93;;;11.30;99.90;;;;;;5050278;28;20690;-74
2023/04/30 02:36:19;;;;;;;3.05;2.85;;;11.30;99.90;;;;;;5050352;28;20292;-71
2023/04/30 02:38:47;;;;;;;1.63;1.52;;;11.30;99.90;;;;;;5035237;28;20200;-72
2023/04/30 02:41:15;;;;;;;0.98;0.88;;;11.20;99.90;;;;;;5050479;28;20222;-72
2023/04/30 02:43:43;;;;;;;1.88;1.73;;;11.10;99.90;;;;;;5050229;28;20310;-72
2023/04/30 02:46:11;;;;;;;1.10;1.00;;;11.00;99.90;;;;;;5050288;28;20231;-73
2023/04/30 02:48:39;;;;;;;1.10;1.00;;;11.00;99.90;;;;;;5049745;28;20239;-72
2023/04/30 02:51:08;;;;;;;3.20;1.45;;;11.00;99.90;;;;;;5037370;28;20303;-71
2023/04/30 02:53:36;;;;;;;0.93;0.88;;;10.90;99.90;;;;;;5029045;28;20304;-71
2023/04/30 02:56:05;;;;;;;1.00;0.80;;;10.90;99.90;;;;;;5050362;28;20204;-71
2023/04/30 02:58:33;;;;;;;2.25;0.90;;;10.80;99.90;;;;;;5049736;28;20214;-71
2023/04/30 03:01:00;;;;;;;1.13;1.02;;;10.80;99.90;;;;;;5050109;28;20216;-71
2023/04/30 03:03:29;;;;;;;1.75;1.40;;;10.80;99.90;;;;;;5049682;28;20732;-71
2023/04/30 03:05:58;;;;;;;1.60;1.50;;;10.70;99.90;;;;;;5050255;28;20196;-72
2023/04/30 03:08:27;;;;;;;4.07;1.02;;;10.80;99.90;;;;;;5049832;28;20204;-71
2023/04/30 03:10:55;;;;;;;1.05;0.95;;;10.80;99.90;;;;;;5048565;28;20287;-71
2023/04/30 03:13:24;;;;;;;1.00;1.00;;;10.90;99.90;;;;;;5049813;28;20219;-71
2023/04/30 03:15:57;;;;;;;1.42;1.33;;;10.80;99.90;;;;;;5050179;28;20232;-71
2023/04/30 03:18:26;;;;;;;1.42;1.33;;;10.80;99.90;;;;;;5049656;28;20685;-71
2023/04/30 03:20:54;;;;;;;2.17;2.05;;;10.70;99.90;;;;;;5041282;28;20232;-71
2023/04/30 03:23:22;;;;;;;1.80;1.70;;;10.80;99.90;;;;;;5033581;28;20626;-70
2023/04/30 03:25:51;;;;;;;0.70;0.70;;;10.80;99.90;;;;;;5053566;28;20279;-71
2023/04/30 03:28:20;;;;;;;1.00;0.80;;;10.70;99.90;;;;;;5045936;28;20212;-71
2023/04/30 03:30:47;;;;;;;1.80;1.63;;;10.80;99.90;;;;;;5030846;28;20254;-71
2023/04/30 03:33:15;;;;;;;1.45;1.35;;;10.80;99.90;;;;;;5053328;28;20320;-73
2023/04/30 03:35:43;;;;;;;2.13;1.95;;;10.70;99.90;;;;;;5053234;28;20269;-72
2023/04/30 03:38:11;;;;;;;1.70;1.60;;;10.70;99.90;;;;;;5053004;28;20664;-71
2023/04/30 03:40:39;;;;;;;2.15;1.95;;;10.80;99.90;;;;;;5053000;28;20210;-72
2023/04/30 03:43:08;;;;;;;2.45;1.45;;;10.70;99.90;;;;;;5053037;28;20251;-72
2023/04/30 03:45:36;;;;;;;0.85;0.85;;;10.70;99.90;;;;;;5037476;28;20211;-72
2023/04/30 03:48:05;;;;;;;0.90;0.90;;;10.80;99.90;;;;;;5052965;28;20200;-73
2023/04/30 03:50:32;;;;;;;1.27;1.17;;;10.70;99.90;;;;;;5044247;28;20663;-72
2023/04/30 03:53:00;;;;;;;2.40;2.20;;;10.70;99.90;;;;;;5032796;28;20228;-71
2023/04/30 03:55:28;;;;;;;1.60;1.02;;;10.80;99.90;;;;;;5050354;28;20208;-71
2023/04/30 03:57:57;;;;;;;1.20;1.00;;;10.80;99.90;;;;;;5052866;28;20208;-72
2023/04/30 04:00:26;;;;;;;1.42;1.33;;;10.80;99.90;;;;;;5052576;28;20204;-70
2023/04/30 04:02:54;;;;;;;1.85;1.00;;;10.80;99.90;;;;;;5043572;28;20669;-71
2023/04/30 04:05:22;;;;;;;1.45;1.35;;;10.80;99.90;;;;;;5045877;28;20611;-71
2023/04/30 04:07:50;;;;;;;1.98;1.88;;;10.70;99.90;;;;;;5036986;28;20235;-71
2023/04/30 04:10:18;;;;;;;1.30;1.20;;;10.70;99.90;;;;;;5052624;28;20196;-72
2023/04/30 04:12:46;;;;;;;1.65;1.55;;;10.70;99.90;;;;;;5052427;28;20224;-72
2023/04/30 04:15:14;;;;;;;2.67;1.58;;;10.70;99.90;;;;;;5052752;28;20585;-72
2023/04/30 04:17:43;;;;;;;3.13;2.78;;;10.80;99.90;;;;;;5052446;28;20273;-73
2023/04/30 04:20:12;;;;;;;1.70;1.58;;;10.80;99.90;;;;;;5042998;28;20204;-71
2023/04/30 04:22:40;;;;;;;1.55;1.15;;;10.90;99.90;;;;;;5031950;28;20236;-71
2023/04/30 04:25:09;;;;;;;1.52;1.08;;;11.00;99.90;;;;;;5046880;28;20227;-71
2023/04/30 04:27:37;;;;;;;1.35;1.25;;;11.10;99.90;;;;;;5052175;28;20236;-72
2023/04/30 04:30:06;;;;;;;2.17;1.98;;;11.20;99.90;;;;;;5052391;28;20651;-72
2023/04/30 04:32:45;;;;;;;2.05;1.95;;;11.30;99.90;;;;;;5052036;28;20239;-72
2023/04/30 04:35:14;;;;;;;1.40;1.30;;;11.30;99.90;;;;;;5052222;28;20215;-72
2023/04/30 04:37:42;;;;;;;1.85;1.55;;;11.20;99.90;;;;;;5041951;28;20208;-71
2023/04/30 04:40:11;;;;;;;2.08;1.27;;;11.30;99.90;;;;;;5051921;28;20261;-72
2023/04/30 04:42:39;;;;;;;2.17;1.98;;;11.40;99.90;;;;;;5051851;28;20204;-71
2023/04/30 04:45:08;;;;;;;0.80;0.80;;;11.40;99.90;;;;;;5052048;28;20287;-71
2023/04/30 04:47:37;;;;;;;1.52;1.42;;;11.50;99.90;;;;;;5051855;28;20262;-71
2023/04/30 04:50:06;;;;;;;1.65;1.55;;;11.50;99.90;;;;;;5047086;28;20224;-71
2023/04/30 04:52:36;;;;;;;1.70;1.58;;;11.60;99.90;;;;;;5031648;28;20637;-72
2023/04/30 04:55:04;;;;;;;2.42;2.22;;;11.60;99.90;;;;;;5043113;28;20649;-71
2023/04/30 04:57:32;;;;;;;1.00;0.95;;;11.60;99.90;;;;;;5051522;28;20956;-71
2023/04/30 05:00:00;;;;;;;1.05;0.95;;;11.50;99.90;;;;;;5051376;28;20662;-71
2023/04/30 05:02:28;;;;;;;1.48;1.38;;;11.30;99.90;;;;;;5051579;28;20211;-70
2023/04/30 05:04:56;;;;;;;1.00;0.90;;;11.10;99.90;;;;;;5051439;28;20238;-73
2023/04/30 05:07:24;;;;;;;1.75;1.58;;;11.00;99.90;;;;;;5051782;28;20601;-71
2023/04/30 05:09:53;;;;;;;0.82;0.77;;;10.80;99.90;;;;;;5043144;28;20282;-71
2023/04/30 05:12:22;;;;;;;2.72;1.95;;;10.70;99.90;;;;;;5040708;28;20635;-71
2023/04/30 05:14:50;;;;;;;1.25;1.15;;;10.80;99.90;;;;;;5051220;28;20234;-71
2023/04/30 05:17:18;;;;;;;1.50;1.40;;;10.90;99.90;;;;;;5051519;28;20208;-71
2023/04/30 05:19:46;;;;;;;1.33;1.23;;;11.00;99.90;;;;;;5048838;28;20684;-72
2023/04/30 05:22:14;;;;;;;1.15;1.05;;;11.00;99.90;;;;;;5031216;28;20730;-71
2023/04/30 05:24:42;;;;;;;1.55;1.35;;;11.00;99.90;;;;;;5041419;28;20247;-72
2023/04/30 05:27:11;;;;;;;1.80;1.70;;;11.00;99.90;;;;;;5051383;28;20642;-72
2023/04/30 05:29:39;;;;;;;1.20;0.95;;;11.00;99.90;;;;;;5042698;28;20208;-72
2023/04/30 05:32:07;;;;;;;1.02;0.90;;;11.00;99.90;;;;;;5051575;28;20574;-72
2023/04/30 05:34:35;;;;;;;1.92;1.67;;;11.10;99.90;;;;;;5050671;28;20265;-72
2023/04/30 05:37:03;;;;;;;1.35;1.25;;;11.00;99.90;;;;;;5051108;28;20315;-72
2023/04/30 05:39:31;;;;;;;2.90;1.20;;;11.10;99.90;;;;;;5050688;28;20307;-71
2023/04/30 05:42:00;;;;;;;1.58;1.48;;;11.20;99.90;;;;;;5050700;28;20639;-71
2023/04/30 05:44:30;;;;;;;1.67;1.13;;;11.20;99.90;;;;;;5050783;28;20295;-73
2023/04/30 05:46:58;;;;;;;1.48;0.77;;;11.30;99.90;;;;;;5036107;28;20689;-71
2023/04/30 05:49:26;;;;;;;1.35;0.98;;;11.40;99.90;;;;;;5049757;28;20303;-72
2023/04/30 05:51:53;;;;;;;1.25;1.15;;;11.40;99.90;;;;;;5031364;28;20705;-72
2023/04/30 05:54:21;;;;;;;1.90;1.60;;;11.50;99.90;;;;;;5037991;28;20788;-71
2023/04/30 05:56:49;;;;;;;2.85;1.73;;;11.60;99.90;;;;;;5050668;28;20211;-72
2023/04/30 05:59:17;;;;;;;2.45;1.45;;;11.70;99.90;;;;;;5050729;28;20397;-71
2023/04/30 06:01:46;;;;;;;0.60;0.60;;;11.70;99.90;;;;;;5051214;28;20208;-71
2023/04/30 06:04:14;;;;;;;0.82;0.82;;;11.80;99.90;;;;;;5071455;22;20258;-64
2023/04/30 06:06:42;;;;;;;1.27;1.20;;;11.80;99.90;;;;;;5050220;28;20355;-65
2023/04/30 06:09:10;;;;;;;1.23;1.13;;;11.90;99.90;;;;;;5050167;28;20670;-65
2023/04/30 06:11:38;;;;;;;1.13;1.08;;;11.90;99.90;;;;;;5050464;28;20242;-65
2023/04/30 06:14:10;;;;;;;2.42;0.82;;;12.10;99.90;;;;;;5039043;28;20221;-65
2023/04/30 06:16:38;;;;;;;1.48;1.02;;;12.10;99.90;;;;;;5030550;28;20650;-64
2023/04/30 06:19:07;;;;;;;0.95;0.70;;;12.10;99.90;;;;;;5030471;28;20238;-64
2023/04/30 06:21:35;;;;;;;0.68;0.60;;;12.20;99.90;;;;;;5031580;28;20206;-64
2023/04/30 06:24:03;;;;;;;1.10;0.63;;;12.20;99.90;;;;;;5021776;28;20351;-65
2023/04/30 06:26:31;;;;;;;1.75;1.35;;;12.20;99.90;;;;;;5029238;28;20291;-65
2023/04/30 06:28:59;;;;;;;1.35;1.25;;;12.20;99.90;;;;;;5030283;28;20283;-65
2023/04/30 06:31:27;;;;;;;0.60;0.50;;;12.20;99.90;;;;;;5030397;28;20214;-65
2023/04/30 06:33:55;;;;;;;0.90;0.70;;;12.40;99.90;;;;;;5030113;28;20228;-64
2023/04/30 06:36:24;;;;;;;1.25;1.15;;;12.50;99.90;;;;;;5037776;28;20239;-64
2023/04/30 06:38:52;;;;;;;0.65;0.63;;;12.50;99.90;;;;;;5026737;28;20207;-65
2023/04/30 06:41:20;;;;;;;1.85;0.85;;;12.60;99.90;;;;;;5030330;28;20652;-64
2023/04/30 06:43:48;;;;;;;0.60;0.52;;;12.60;99.90;;;;;;5030438;28;20311;-65
2023/04/30 06:46:16;;;;;;;1.08;0.70;;;12.60;99.90;;;;;;5030366;28;20205;-65
2023/04/30 06:48:44;;;;;;;0.80;0.50;;;12.70;99.90;;;;;;5030113;28;20212;-64
2023/04/30 06:51:12;;;;;;;1.30;1.05;;;12.80;99.90;;;;;;5030063;28;20579;-65
2023/04/30 06:53:41;;;;;;;0.60;0.50;;;12.80;99.90;;;;;;5030577;28;20229;-64
2023/04/30 06:56:09;;;;;;;0.60;0.40;;;12.90;99.90;;;;;;5045854;28;20702;-64
2023/04/30 06:58:37;;;;;;;0.80;0.50;;;12.90;99.90;;;;;;5036703;28;20276;-65
2023/04/30 07:01:05;;;;;;;0.65;0.63;;;12.90;99.90;;;;;;5033768;28;20197;-64
2023/04/30 07:03:34;;;;;;;1.00;0.73;;;13.10;99.90;;;;;;5033415;28;20241;-65
2023/04/30 07:06:03;;;;;;;0.60;0.50;;;13.30;99.90;;;;;;5034089;28;20232;-64
2023/04/30 07:08:31;;;;;;;0.57;0.50;;;13.40;99.90;;;;;;5034101;28;20205;-64
2023/04/30 07:11:00;;;;;;;1.60;0.80;;;13.30;99.90;;;;;;5026458;28;20207;-64
2023/04/30 07:13:28;;;;;;;0.60;0.50;;;13.40;99.90;;;;;;5034154;28;20310;-64
2023/04/30 07:15:56;;;;;;;1.00;0.90;;;13.50;99.90;;;;;;5033523;28;20231;-64
2023/04/30 07:18:23;;;;;;;1.52;0.80;;;13.50;99.90;;;;;;5033834;28;20209;-64
2023/04/30 07:20:51;;;;;;;0.60;0.40;;;13.60;99.90;;;;;;5033390;28;20236;-64
2023/04/30 07:23:19;;;;;;;0.88;0.63;;;13.70;99.90;;;;;;5033530;28;20731;-65
2023/04/30 07:25:47;;;;;;;0.57;0.43;;;13.70;99.90;;;;;;5049872;28;20681;-65
2023/04/30 07:28:16;;;;;;;0.60;0.47;;;13.80;99.90;;;;;;5032738;28;20287;-65
2023/04/30 07:30:44;;;;;;;1.52;1.40;;;13.80;99.90;;;;;;5033137;28;20208;-65
2023/04/30 07:33:12;;;;;;;0.80;0.77;;;13.90;99.90;;;;;;5033433;28;20324;-65
2023/04/30 07:35:40;;;;;;;0.80;0.80;;;14.00;99.90;;;;;;5032895;28;20230;-63
2023/04/30 07:38:08;;;;;;;0.63;0.50;;;14.20;99.90;;;;;;5033580;28;20205;-65
2023/04/30 07:40:36;;;;;;;1.05;0.70;;;14.20;99.90;;;;;;5033377;28;20214;-65
2023/04/30 07:43:04;;;;;;;0.80;0.70;;;14.30;99.90;;;;;;5032358;28;20213;-65
2023/04/30 07:45:34;;;;;;;1.00;0.50;;;14.30;99.90;;;;;;5033033;28;20208;-64
2023/04/30 07:48:02;;;;;;;0.82;0.80;;;14.40;99.90;;;;;;5033318;28;20630;-64
2023/04/30 07:50:32;;;;;;;0.70;0.57;;;14.50;99.90;;;;;;5033060;28;20295;-66
2023/04/30 07:53:01;;;;;;;1.08;0.93;;;14.50;99.90;;;;;;5028400;28;20207;-64
2023/04/30 07:55:30;;;;;;;0.50;0.40;;;14.60;99.90;;;;;;5052619;28;20285;-65
2023/04/30 07:57:58;;;;;;;0.70;0.50;;;14.70;99.90;;;;;;5041592;28;20624;-65
2023/04/30 08:00:28;;;;;;;0.52;0.40;;;14.90;99.90;;;;;;5032068;28;20231;-64
2023/04/30 08:02:58;;;;;;;1.50;0.77;;;14.90;99.90;;;;;;5032442;28;20885;-65
2023/04/30 08:05:26;;;;;;;0.60;0.57;;;15.00;99.90;;;;;;5032427;28;20206;-64
2023/04/30 08:07:54;;;;;;;1.30;0.65;;;15.20;99.90;;;;;;5032662;28;20311;-64
2023/04/30 08:10:22;;;;;;;0.80;0.73;;;15.40;99.90;;;;;;5032583;28;20284;-65
2023/04/30 08:12:50;;;;;;;1.17;0.80;;;15.40;99.90;;;;;;5032535;28;20213;-65
2023/04/30 08:15:20;;;;;;;0.60;0.52;;;15.60;99.90;;;;;;5032552;28;20288;-65
2023/04/30 08:17:49;;;;;;;0.70;0.70;;;15.70;99.90;;;;;;5024149;28;20204;-65
2023/04/30 08:20:18;;;;;;;0.60;0.60;;;15.90;99.90;;;;;;5032434;28;20243;-65
2023/04/30 08:22:47;;;;;;;1.05;0.95;;;16.10;99.90;;;;;;5033517;28;20244;-64
2023/04/30 08:25:15;;;;;;;0.88;0.88;;;16.20;99.90;;;;;;5052194;28;20238;-65
2023/04/30 08:27:43;;;;;;;1.08;0.60;;;16.40;99.90;;;;;;5043262;28;20303;-65
2023/04/30 08:30:11;;;;;;;1.52;1.42;;;16.50;99.90;;;;;;5032167;28;20211;-65
2023/04/30 08:32:39;;;;;;;1.00;1.00;;;16.60;99.90;;;;;;5032257;28;20797;-65
2023/04/30 08:35:08;;;;;;;0.60;0.45;;;16.60;99.90;;;;;;5029693;28;20229;-65
2023/04/30 08:37:37;;;;;;;0.63;0.63;;;16.40;99.90;;;;;;5028565;28;20299;-64
2023/04/30 08:40:08;;;;;;;0.60;0.50;;;16.50;99.90;;;;;;5024183;28;20304;-65
2023/04/30 08:42:37;;;;;;;1.10;0.60;;;16.50;99.90;;;;;;5032343;28;20208;-64
2023/04/30 08:45:08;;;;;;;0.80;0.80;;;16.60;99.90;;;;;;5024114;28;20315;-65
2023/04/30 08:47:37;;;;;;;0.88;0.82;;;16.60;99.90;;;;;;5032129;28;20212;-65
2023/04/30 08:50:06;;;;;;;1.08;1.00;;;16.70;99.90;;;;;;5023565;28;20208;-65
2023/04/30 08:52:37;;;;;;;1.50;0.93;;;16.90;99.90;;;;;;5032042;28;20212;-64
2023/04/30 08:55:07;;;;;;;0.70;0.60;;;17.10;99.90;;;;;;5035564;28;20233;-65
2023/04/30 08:57:36;;;;;;;0.60;0.40;;;17.20;99.90;;;;;;5043641;28;20224;-66
2023/04/30 09:00:06;;;;;;;1.95;0.90;;;17.20;99.90;;;;;;5023592;28;20204;-65
2023/04/30 09:02:34;;;;;;;1.35;0.70;;;17.20;99.90;;;;;;5031803;28;20216;-65
2023/04/30 09:05:03;;;;;;;1.70;0.73;;;17.10;99.90;;;;;;5031408;28;20237;-65
2023/04/30 09:07:33;;;;;;;1.70;0.60;;;17.30;99.90;;;;;;5030645;28;20204;-65
2023/04/30 09:10:03;;;;;;;0.65;0.57;;;17.30;99.90;;;;;;5031411;28;20742;-65
2023/04/30 09:12:31;;;;;;;0.60;0.57;;;17.40;99.90;;;;;;5031677;28;20679;-65
2023/04/30 09:15:01;;;;;;;0.70;0.70;;;17.60;99.90;;;;;;5031296;28;20232;-65
2023/04/30 09:17:29;;;;;;;0.50;0.40;;;17.90;99.90;;;;;;5030639;28;20628;-65
2023/04/30 09:20:08;;;;;;;0.70;0.50;;;18.00;99.90;;;;;;5031162;28;20219;-65
2023/04/30 09:22:37;;;;;;;1.23;0.93;;;18.10;99.90;;;;;;5031680;28;20218;-65
2023/04/30 09:25:08;;;;;;;0.80;0.80;;;18.00;99.90;;;;;;5041664;28;20219;-66
2023/04/30 09:27:36;;;;;;;0.70;0.50;;;18.10;99.90;;;;;;5027346;28;20204;-65
2023/04/30 09:30:05;;;;;;;0.60;0.50;;;18.40;99.90;;;;;;5031028;28;20244;-65
2023/04/30 09:32:33;;;;;;;0.80;0.60;;;18.50;99.90;;;;;;5030573;28;20270;-64
2023/04/30 09:35:01;;;;;;;0.60;0.40;;;18.60;99.90;;;;;;5031046;28;20366;-65
2023/04/30 09:37:36;;;;;;;0.60;0.40;;;18.30;99.90;;;;;;5030974;28;20591;-65
2023/04/30 09:40:07;;;;;;;0.60;0.50;;;18.50;99.90;;;;;;5030865;28;20706;-65
2023/04/30 09:42:35;;;;;;;0.95;0.95;;;18.60;99.90;;;;;;5025921;28;20291;-65
2023/04/30 09:45:05;;;;;;;1.10;0.75;;;18.70;99.90;;;;;;5031132;28;20243;-65
2023/04/30 09:47:33;;;;;;;0.60;0.50;;;18.70;99.90;;;;;;5030883;28;20211;-64
2023/04/30 09:50:01;;;;;;;0.60;0.40;;;18.80;99.90;;;;;;5030743;28;20638;-64
2023/04/30 09:52:29;;;;;;;0.50;0.40;;;18.80;99.90;;;;;;5030871;28;20299;-65
2023/04/30 09:54:56;;;;;;;0.80;0.80;;;18.80;99.90;;;;;;5049114;28;20318;-65
2023/04/30 09:57:29;;;;;;;0.60;0.50;;;18.80;99.90;;;;;;5044885;28;20664;-65
2023/04/30 09:59:58;;;;;;;0.70;0.50;;;19.20;99.90;;;;;;5023322;28;20243;-65
2023/04/30 10:02:27;;;;;;;0.60;0.40;;;19.30;99.90;;;;;;5030942;28;20326;-65
2023/04/30 10:04:58;;;;;;;1.02;0.68;;;19.50;99.50;;;;;;5030347;28;20251;-65
2023/04/30 10:07:34;;;;;;;0.60;0.40;;;19.50;99.60;;;;;;5030866;28;20235;-65
2023/04/30 10:10:07;;;;;;;0.70;0.50;;;19.70;99.90;;;;;;5030994;28;20550;-65
2023/04/30 10:12:42;;;;;;;0.60;0.55;;;19.60;98.50;;;;;;5030730;28;20216;-65
2023/04/30 10:15:15;;;;;;;0.70;0.45;;;19.60;99.50;;;;;;5022917;28;20293;-65
2023/04/30 10:17:47;;;;;;;0.70;0.52;;;19.70;98.50;;;;;;5029591;28;20303;-67
2023/04/30 10:20:17;;;;;;;0.60;0.40;;;19.80;98.00;;;;;;5030555;28;20258;-65
2023/04/30 10:22:46;;;;;;;0.60;0.40;;;19.80;97.50;;;;;;5030743;28;20578;-65
2023/04/30 10:25:15;;;;;;;0.60;0.50;;;19.60;97.00;;;;;;5050521;28;20237;-66
2023/04/30 10:27:44;;;;;;;0.50;0.38;;;19.80;96.40;;;;;;5042158;28;20204;-65
2023/04/30 10:30:14;;;;;;;0.60;0.40;;;20.30;97.20;;;;;;5026349;28;20233;-65
2023/04/30 10:32:48;;;;;;;2.15;0.50;;;20.30;96.40;;;;;;5034582;28;20569;-65
2023/04/30 10:35:20;;;;;;;0.60;0.40;;;20.30;96.40;;;;;;5029196;28;20222;-64
2023/04/30 10:37:53;;;;;;;0.63;0.52;;;20.10;95.90;;;;;;5033922;28;20230;-64
2023/04/30 10:40:21;;;;;;;0.70;0.60;;;20.10;96.50;;;;;;5034423;28;20572;-65
2023/04/30 10:42:50;;;;;;;0.60;0.50;;;20.20;96.90;;;;;;5034168;28;20635;-65
2023/04/30 10:45:19;;;;;;;0.60;0.40;;;20.60;96.60;;;;;;5034537;28;20236;-64
2023/04/30 10:47:47;;;;;;;0.60;0.50;;;20.70;95.80;;;;;;5033859;28;20291;-65
2023/04/30 10:50:15;;;;;;;0.70;0.70;;;20.80;96.20;;;;;;5034209;28;20209;-65
2023/04/30 10:52:44;;;;;;;0.70;0.40;;;20.70;95.20;;;;;;5025578;28;20208;-65
2023/04/30 10:55:17;;;;;;;0.70;0.50;;;21.00;96.20;;;;;;5046170;28;20212;-66
2023/04/30 10:57:47;;;;;;;0.60;0.40;;;20.80;95.60;;;;;;5045729;28;20227;-65
2023/04/30 11:00:24;;;;;;;0.60;0.40;;;20.90;96.20;;;;;;5026266;28;20205;-65
2023/04/30 11:02:56;;;;;;;0.50;0.40;;;21.10;96.20;;;;;;5034161;28;20295;-65
2023/04/30 11:05:35;;;;;;;0.98;0.50;;;21.40;96.40;;;;;;5034108;28;20205;-66
2023/04/30 11:08:03;;;;;;;0.75;0.60;;;21.20;95.60;;;;;;5033775;28;20239;-65
2023/04/30 11:10:33;;;;;;;0.60;0.45;;;21.20;95.90;;;;;;5032937;28;20594;-65
2023/04/30 11:13:05;;;;;;;0.60;0.60;;;21.10;96.10;;;;;;5033696;28;20215;-65
2023/04/30 11:15:40;;;;;;;1.00;0.50;;;20.90;96.60;;;;;;5033847;28;20240;-64
2023/04/30 11:18:09;;;;;;;0.70;0.50;;;21.10;95.90;;;;;;5033378;28;20683;-65
2023/04/30 11:20:41;;;;;;;0.60;0.40;;;20.90;95.70;;;;;;5033674;28;20205;-65
2023/04/30 11:23:10;;;;;;;0.50;0.38;;;21.10;96.10;;;;;;5036481;28;20251;-65
2023/04/30 11:25:43;;;;;;;1.10;0.70;;;21.20;95.30;;;;;;5052823;28;20295;-65
2023/04/30 11:28:16;;;;;;;0.80;0.52;;;21.20;95.50;;;;;;5024617;28;20212;-65
2023/04/30 11:30:53;;;;;;;0.60;0.40;;;20.80;94.80;;;;;;5033406;28;20216;-65
2023/04/30 11:33:21;;;;;;;0.50;0.40;;;21.00;95.30;;;;;;5026345;28;20221;-65
2023/04/30 11:35:51;;;;;;;0.60;0.40;;;21.10;95.50;;;;;;5033470;28;20298;-65
2023/04/30 11:38:21;;;;;;;0.68;0.50;;;21.30;95.30;;;;;;5033462;28;20227;-64
2023/04/30 11:40:50;;;;;;;0.60;0.40;;;21.40;95.30;;;;;;5032031;28;20647;-65
2023/04/30 11:43:23;;;;;;;0.50;0.40;;;21.10;94.10;;;;;;5033333;28;20315;-65
2023/04/30 11:46:04;;;;;;;0.50;0.30;;;21.10;95.60;;;;;;5032995;28;20300;-65
2023/04/30 11:48:33;;;;;;;0.57;0.40;;;21.40;95.20;;;;;;5033318;28;20691;-65
2023/04/30 11:51:06;;;;;;;0.60;0.40;;;21.50;95.00;;;;;;5032814;28;20292;-65
2023/04/30 11:53:34;;;;;;;0.60;0.40;;;21.90;94.90;;;;;;5039104;28;20805;-65
2023/04/30 11:56:06;;;;;;;0.50;0.30;;;22.00;93.90;;;;;;5046326;28;20207;-65
2023/04/30 11:58:36;;;;;;;0.50;0.40;;;22.00;93.60;;;;;;5023489;28;20255;-65
2023/04/30 12:01:08;;;;;;;0.60;0.40;;;22.30;94.30;;;;;;5033482;28;20288;-65
2023/04/30 12:03:41;;;;;;;0.50;0.32;;;22.30;93.70;;;;;;5032990;28;20240;-65
2023/04/30 12:06:11;;;;;;;0.50;0.30;;;22.40;93.70;;;;;;5032803;28;20309;-65
2023/04/30 12:08:41;;;;;;;0.60;0.40;;;22.30;92.90;;;;;;5032806;28;20572;-66
2023/04/30 12:11:20;;;;;;;0.60;0.40;;;22.40;93.40;;;;;;5032068;28;20202;-65
2023/04/30 12:13:52;;;;;;;0.50;0.40;;;22.30;91.50;;;;;;5032559;28;20233;-64
2023/04/30 12:16:22;;;;;;;0.57;0.38;;;22.30;92.80;;;;;;5025322;28;20240;-65
2023/04/30 12:18:51;;;;;;;0.60;0.50;;;22.30;92.10;;;;;;5032357;28;20218;-65
2023/04/30 12:21:21;;;;;;;0.60;0.40;;;22.40;92.20;;;;;;5032713;28;20213;-65
2023/04/30 12:23:49;;;;;;;0.50;0.30;;;22.40;91.80;;;;;;5038506;28;20229;-65
2023/04/30 12:26:17;;;;;;;0.60;0.40;;;22.00;91.90;;;;;;5028171;28;20626;-65
2023/04/30 12:28:47;;;;;;;0.50;0.40;;;21.80;93.50;;;;;;5031193;28;20213;-65
2023/04/30 12:31:17;;;;;;;0.50;0.40;;;22.40;92.80;;;;;;5041009;28;20277;-65
2023/04/30 12:33:55;;;;;;;0.50;0.30;;;22.70;92.50;;;;;;5032122;28;20221;-65
2023/04/30 12:36:30;;;;;;;0.50;0.30;;;22.90;91.10;;;;;;5032130;28;20201;-65
2023/04/30 12:39:08;;;;;;;0.50;0.30;;;22.10;90.30;;;;;;5031395;28;20241;-65
2023/04/30 12:41:38;;;;;;;0.60;0.50;;;22.10;91.60;;;;;;5032293;28;20249;-65
2023/04/30 12:44:16;;;;;;;1.00;0.82;;;22.80;90.60;;;;;;5031757;28;20764;-65
2023/04/30 12:46:45;;;;;;;0.50;0.40;;;22.80;89.90;;;;;;5032106;28;20658;-65
2023/04/30 12:49:24;;;;;;;0.60;0.40;;;22.80;90.10;;;;;;5031681;28;20195;-65
2023/04/30 12:51:56;;;;;;;0.60;0.40;;;23.10;89.60;;;;;;5031290;28;20206;-66
2023/04/30 12:54:28;;;;;;;0.50;0.35;;;23.30;89.90;;;;;;5031764;28;20225;-65
2023/04/30 12:56:58;;;;;;;0.50;0.30;;;23.30;87.80;;;;;;5048089;28;20217;-65
2023/04/30 12:59:27;;;;;;;0.50;0.30;;;23.10;88.60;;;;;;5032295;28;20727;-65